createdAt,value
2023-03-17T00:01:51.409Z,1.87
2023-03-17T00:04:19.555Z,2.14
2023-03-17T00:06:47.603Z,1.81
2023-03-17T00:09:15.409Z,2.24
2023-03-17T00:11:43.501Z,2.10
2023-03-17T00:14:10.706Z,2.29
2023-03-17T00:16:38.964Z,2.26
2023-03-17T00:19:06.633Z,1.59
2023-03-17T00:21:34.264Z,1.28
2023-03-17T00:24:01.564Z,1.50
2023-03-17T00:26:29.123Z,1.59
2023-03-17T00:28:56.307Z,2.46
2023-03-17T00:31:28.804Z,2.83
2023-03-17T00:33:56.324Z,1.73
2023-03-17T00:36:24.677Z,2.09
2023-03-17T00:38:52.736Z,2.90
2023-03-17T00:41:20.366Z,1.68
2023-03-17T00:43:47.649Z,2.47
2023-03-17T00:46:22.476Z,2.08
2023-03-17T00:48:49.945Z,1.45
2023-03-17T00:51:17.430Z,1.95
2023-03-17T00:53:44.621Z,1.93
2023-03-17T00:56:16.272Z,1.59
2023-03-17T00:58:43.603Z,1.72
2023-03-17T01:01:11.034Z,1.94
2023-03-17T01:03:38.871Z,1.36
2023-03-17T01:06:06.907Z,0.13
2023-03-17T01:08:34.251Z,0.27
2023-03-17T01:11:02.012Z,1.27
2023-03-17T01:13:29.326Z,1.62
2023-03-17T01:15:57.206Z,0.69
2023-03-17T01:18:24.827Z,1.30
2023-03-17T01:20:53.089Z,0.88
2023-03-17T01:23:20.451Z,1.65
2023-03-17T01:25:49.110Z,1.90
2023-03-17T01:28:16.854Z,1.89
2023-03-17T01:30:45.121Z,2.53
2023-03-17T01:33:13.037Z,1.30
2023-03-17T01:35:41.418Z,0.52
2023-03-17T01:38:09.912Z,0.04
2023-03-17T01:40:39.053Z,0.43
2023-03-17T01:43:06.208Z,0.03
2023-03-17T01:45:52.052Z,0.17
2023-03-17T01:48:19.544Z,0.10
2023-03-17T01:50:48.363Z,0.06
2023-03-17T01:53:15.769Z,0.17
2023-03-17T01:55:43.620Z,-0.15
2023-03-17T01:58:10.826Z,-0.71
2023-03-17T02:00:38.134Z,-0.95
2023-03-17T02:03:06.306Z,-1.08
2023-03-17T02:05:33.550Z,-1.20
2023-03-17T02:08:00.789Z,-1.28
2023-03-17T02:10:28.918Z,-0.89
2023-03-17T02:12:57.441Z,-0.57
2023-03-17T02:15:24.843Z,-0.20
2023-03-17T02:17:52.834Z,-0.17
2023-03-17T02:20:20.051Z,0.58
2023-03-17T02:22:49.206Z,0.53
2023-03-17T02:25:17.376Z,0.76
2023-03-17T02:27:46.313Z,0.55
2023-03-17T02:30:14.956Z,-0.02
2023-03-17T02:32:42.439Z,-0.63
2023-03-17T02:35:10.245Z,-0.42
2023-03-17T02:37:37.636Z,-0.73
2023-03-17T02:40:05.859Z,-0.68
2023-03-17T02:42:33.653Z,-0.62
2023-03-17T02:45:01.181Z,-0.72
2023-03-17T02:47:28.644Z,-1.05
2023-03-17T02:49:55.870Z,-1.07
2023-03-17T02:52:23.024Z,-1.16
2023-03-17T02:54:50.739Z,-0.56
2023-03-17T02:57:17.958Z,-0.15
2023-03-17T02:59:45.205Z,-0.35
2023-03-17T03:02:12.678Z,-0.70
2023-03-17T03:04:40.051Z,-0.61
2023-03-17T03:07:07.300Z,-0.24
2023-03-17T03:09:35.289Z,0.44
2023-03-17T03:12:02.686Z,0.97
2023-03-17T03:14:29.860Z,0.72
2023-03-17T03:16:57.412Z,-0.06
2023-03-17T03:19:24.562Z,-0.21
2023-03-17T03:21:51.758Z,-0.17
2023-03-17T03:24:19.188Z,-0.38
2023-03-17T03:26:46.450Z,-0.21
2023-03-17T03:29:13.669Z,-0.16
2023-03-17T03:31:41.138Z,-0.14
2023-03-17T03:34:08.833Z,0.48
2023-03-17T03:36:37.001Z,0.08
2023-03-17T03:39:04.473Z,-0.15
2023-03-17T03:41:31.773Z,-0.06
2023-03-17T03:43:58.920Z,-0.27
2023-03-17T03:46:26.879Z,0.74
2023-03-17T03:48:54.706Z,1.29
2023-03-17T03:51:21.854Z,-0.26
2023-03-17T03:53:49.374Z,-1.13
2023-03-17T03:56:16.595Z,-0.97
2023-03-17T03:58:43.877Z,-1.10
2023-03-17T04:01:11.409Z,-0.58
2023-03-17T04:03:38.985Z,-0.81
2023-03-17T04:06:06.256Z,-0.90
2023-03-17T04:08:33.491Z,-1.05
2023-03-17T04:11:01.086Z,-1.03
2023-03-17T04:13:29.283Z,-0.45
2023-03-17T04:15:56.534Z,-0.23
2023-03-17T04:18:24.083Z,-0.50
2023-03-17T04:20:51.389Z,-0.59
2023-03-17T04:23:19.123Z,-0.90
2023-03-17T04:25:47.006Z,-0.41
2023-03-17T04:28:14.334Z,0.38
2023-03-17T04:30:41.564Z,-0.33
2023-03-17T04:33:09.045Z,-0.71
2023-03-17T04:35:36.399Z,-0.49
2023-03-17T04:38:03.869Z,-0.75
2023-03-17T04:40:31.810Z,-0.80
2023-03-17T04:42:59.229Z,-1.10
2023-03-17T04:45:26.413Z,-1.60
2023-03-17T04:47:53.870Z,-1.77
2023-03-17T04:50:21.041Z,-1.65
2023-03-17T04:52:48.305Z,-1.10
2023-03-17T04:55:16.262Z,-1.01
2023-03-17T04:57:43.929Z,-1.06
2023-03-17T05:00:12.622Z,-0.58
2023-03-17T05:02:40.261Z,-0.43
2023-03-17T05:05:07.510Z,-1.07
2023-03-17T05:07:34.720Z,-1.20
2023-03-17T05:10:02.245Z,-1.26
2023-03-17T05:12:29.484Z,-1.06
2023-03-17T05:14:56.645Z,-1.51
2023-03-17T05:17:24.205Z,-0.90
2023-03-17T05:19:51.386Z,-0.69
2023-03-17T05:22:18.595Z,-1.21
2023-03-17T05:24:46.098Z,-0.95
2023-03-17T05:27:13.266Z,-0.51
2023-03-17T05:29:40.478Z,-0.72
2023-03-17T05:32:07.908Z,-0.76
2023-03-17T05:34:35.090Z,-0.84
2023-03-17T05:37:02.237Z,-0.52
2023-03-17T05:39:29.820Z,0.14
2023-03-17T05:41:57.320Z,0.45
2023-03-17T05:44:24.836Z,-0.07
2023-03-17T05:46:52.288Z,-0.06
2023-03-17T05:49:20.359Z,-0.25
2023-03-17T05:51:47.592Z,-0.45
2023-03-17T05:54:15.060Z,-0.68
2023-03-17T05:56:42.831Z,-0.32
2023-03-17T05:59:10.642Z,1.08
2023-03-17T06:01:38.065Z,1.17
2023-03-17T06:04:05.528Z,1.34
2023-03-17T06:06:32.761Z,2.03
2023-03-17T06:08:59.897Z,1.42
2023-03-17T06:11:27.493Z,1.40
2023-03-17T06:13:54.988Z,0.52
2023-03-17T06:16:22.314Z,0.97
2023-03-17T06:18:49.973Z,1.95
2023-03-17T06:21:17.314Z,1.46
2023-03-17T06:23:44.638Z,1.21
2023-03-17T06:26:12.077Z,1.88
2023-03-17T06:28:39.215Z,2.12
2023-03-17T06:31:07.420Z,2.51
2023-03-17T06:33:35.383Z,2.48
2023-03-17T06:36:03.298Z,2.44
2023-03-17T06:38:31.215Z,2.91
2023-03-17T06:40:59.035Z,3.43
2023-03-17T06:43:26.491Z,3.41
2023-03-17T06:45:53.940Z,3.40
2023-03-17T06:48:23.494Z,3.11
2023-03-17T06:50:50.930Z,3.31
2023-03-17T06:53:18.883Z,3.41
2023-03-17T06:55:47.064Z,3.21
2023-03-17T06:58:15.997Z,3.33
2023-03-17T07:00:47.189Z,3.86
2023-03-17T07:03:15.971Z,3.91
2023-03-17T07:05:43.620Z,4.02
2023-03-17T07:08:11.561Z,3.88
2023-03-17T07:10:41.951Z,4.72
2023-03-17T07:13:10.241Z,4.51
2023-03-17T07:15:38.359Z,4.75
2023-03-17T07:18:07.031Z,4.86
2023-03-17T07:20:34.516Z,4.89
2023-03-17T07:23:02.029Z,5.23
2023-03-17T07:25:29.914Z,5.71
2023-03-17T07:27:58.520Z,5.81
2023-03-17T07:30:26.552Z,6.19
2023-03-17T07:32:55.311Z,5.78
2023-03-17T07:35:23.396Z,5.88
2023-03-17T07:37:50.931Z,6.06
2023-03-17T07:40:18.912Z,6.05
2023-03-17T07:42:46.361Z,6.37
2023-03-17T07:45:14.034Z,6.32
2023-03-17T07:47:41.890Z,6.93
2023-03-17T07:50:10.812Z,7.28
2023-03-17T07:52:38.333Z,7.25
2023-03-17T07:55:10.523Z,7.02
2023-03-17T07:57:38.747Z,7.33
2023-03-17T08:00:10.970Z,7.50
2023-03-17T08:02:39.178Z,7.01
2023-03-17T08:05:10.500Z,7.43
2023-03-17T08:07:38.388Z,7.55
2023-03-17T08:10:07.484Z,7.98
2023-03-17T08:12:36.547Z,7.88
2023-03-17T08:15:04.268Z,7.53
2023-03-17T08:17:31.913Z,7.94
2023-03-17T08:19:59.625Z,8.12
2023-03-17T08:22:27.759Z,8.36
2023-03-17T08:24:55.764Z,8.39
2023-03-17T08:27:23.497Z,8.38
2023-03-17T08:29:51.274Z,8.65
2023-03-17T08:32:18.886Z,8.18
2023-03-17T08:34:48.429Z,8.00
2023-03-17T08:37:16.009Z,8.16
2023-03-17T08:39:45.060Z,8.08
2023-03-17T08:42:12.907Z,8.71
2023-03-17T08:44:42.206Z,8.57
2023-03-17T08:47:10.953Z,9.37
2023-03-17T08:49:38.796Z,8.61
2023-03-17T08:52:06.134Z,9.10
2023-03-17T08:54:34.951Z,9.36
2023-03-17T08:57:02.765Z,9.09
2023-03-17T08:59:30.310Z,9.55
2023-03-17T09:01:58.009Z,9.55
2023-03-17T09:04:26.658Z,10.33
2023-03-17T09:07:03.271Z,10.60
2023-03-17T09:09:35.324Z,9.88
2023-03-17T09:12:06.345Z,9.65
2023-03-17T09:14:42.870Z,9.71
2023-03-17T09:17:11.266Z,9.81
2023-03-17T09:19:38.947Z,10.14
2023-03-17T09:22:06.881Z,10.18
2023-03-17T09:24:34.461Z,11.43
2023-03-17T09:27:02.189Z,10.70
2023-03-17T09:29:29.600Z,10.33
2023-03-17T09:31:57.252Z,10.18
2023-03-17T09:34:25.226Z,10.48
2023-03-17T09:36:55.964Z,10.70
2023-03-17T09:39:24.210Z,11.21
2023-03-17T09:42:14.587Z,11.60
2023-03-17T09:44:57.041Z,11.72
2023-03-17T09:47:42.294Z,11.24
2023-03-17T09:50:17.589Z,11.66
2023-03-17T09:52:46.134Z,12.77
2023-03-17T09:55:32.747Z,12.16
2023-03-17T09:58:01.101Z,13.16
2023-03-17T10:00:31.151Z,13.91
2023-03-17T10:02:59.831Z,14.31
2023-03-17T10:05:32.435Z,14.23
2023-03-17T10:08:04.363Z,13.09
2023-03-17T10:10:49.976Z,12.55
2023-03-17T10:13:44.618Z,12.53
2023-03-17T10:16:14.631Z,13.63
2023-03-17T10:18:48.203Z,14.28
2023-03-17T10:21:24.314Z,14.30
2023-03-17T10:23:55.442Z,14.74
2023-03-17T10:26:27.194Z,14.72
2023-03-17T10:28:55.874Z,15.11
2023-03-17T10:31:35.437Z,13.28
2023-03-17T10:34:39.665Z,14.06
2023-03-17T10:37:16.329Z,14.10
2023-03-17T10:39:49.126Z,14.06
2023-03-17T10:42:24.512Z,14.25
2023-03-17T10:44:56.451Z,15.03
2023-03-17T10:47:25.277Z,14.25
2023-03-17T10:49:53.395Z,13.84
2023-03-17T10:52:28.095Z,14.31
2023-03-17T10:54:56.098Z,13.25
2023-03-17T10:57:23.875Z,12.17
2023-03-17T10:59:53.810Z,12.61
2023-03-17T11:02:24.085Z,12.43
2023-03-17T11:04:55.113Z,13.70
2023-03-17T11:07:36.467Z,14.91
2023-03-17T11:10:14.838Z,15.14
2023-03-17T11:12:43.038Z,14.85
2023-03-17T11:15:14.255Z,13.78
2023-03-17T11:17:45.502Z,13.61
2023-03-17T11:20:18.803Z,14.80
2023-03-17T11:22:58.403Z,14.90
2023-03-17T11:25:27.213Z,15.05
2023-03-17T11:28:16.363Z,15.70
2023-03-17T11:31:13.034Z,15.73
2023-03-17T11:34:02.982Z,15.16
2023-03-17T11:36:45.370Z,15.51
2023-03-17T11:39:17.192Z,14.43
2023-03-17T11:42:01.674Z,15.22
2023-03-17T11:44:29.340Z,15.01
2023-03-17T11:47:06.590Z,13.58
2023-03-17T11:49:38.929Z,14.13
2023-03-17T11:52:29.321Z,13.66
2023-03-17T11:55:16.477Z,13.74
2023-03-17T11:57:51.841Z,15.16
2023-03-17T12:00:27.552Z,14.89
2023-03-17T12:03:00.230Z,14.41
2023-03-17T12:05:30.072Z,15.90
2023-03-17T12:07:59.802Z,16.02
2023-03-17T12:10:36.421Z,16.42
2023-03-17T12:13:09.897Z,15.87
2023-03-17T12:15:45.570Z,15.21
2023-03-17T12:18:18.772Z,15.61
2023-03-17T12:20:58.584Z,16.24
2023-03-17T12:23:33.862Z,16.71
2023-03-17T12:26:09.193Z,16.55
2023-03-17T12:28:57.686Z,16.34
2023-03-17T12:31:28.998Z,14.72
2023-03-17T12:34:07.991Z,14.62
2023-03-17T12:36:39.416Z,15.57
2023-03-17T12:39:10.346Z,15.72
2023-03-17T12:42:01.646Z,15.11
2023-03-17T12:44:44.725Z,15.38
2023-03-17T12:47:33.493Z,15.80
2023-03-17T12:50:10.865Z,14.94
2023-03-17T12:53:31.614Z,15.50
2023-03-17T12:56:21.993Z,15.50
2023-03-17T12:58:51.121Z,15.83
2023-03-17T13:01:39.402Z,16.08
2023-03-17T13:04:12.874Z,16.20
2023-03-17T13:07:02.510Z,16.34
2023-03-17T13:09:32.959Z,15.90
2023-03-17T13:12:02.285Z,16.56
2023-03-17T13:14:42.900Z,16.26
2023-03-17T13:17:24.604Z,15.60
2023-03-17T13:19:56.728Z,16.59
2023-03-17T13:22:25.539Z,16.54
2023-03-17T13:24:53.173Z,16.50
2023-03-17T13:27:32.787Z,14.59
2023-03-17T13:30:01.691Z,14.41
2023-03-17T13:32:32.665Z,13.91
2023-03-17T13:35:00.144Z,14.67
2023-03-17T13:37:46.268Z,15.15
2023-03-17T13:40:16.290Z,14.53
2023-03-17T13:42:55.008Z,14.98
2023-03-17T13:45:43.924Z,13.87
2023-03-17T13:48:37.430Z,12.69
2023-03-17T13:51:07.591Z,12.59
2023-03-17T13:53:42.208Z,13.12
2023-03-17T13:56:11.838Z,12.34
2023-03-17T13:58:53.549Z,12.16
2023-03-17T14:01:21.665Z,12.09
2023-03-17T14:03:51.295Z,13.09
2023-03-17T14:06:19.003Z,12.76
2023-03-17T14:08:48.301Z,12.16
2023-03-17T14:11:36.272Z,12.07
2023-03-17T14:14:15.173Z,12.00
2023-03-17T14:17:07.618Z,11.91
2023-03-17T14:19:34.827Z,11.90
2023-03-17T14:22:04.215Z,12.28
2023-03-17T14:24:32.334Z,12.09
2023-03-17T14:27:04.409Z,12.12
2023-03-17T14:29:31.997Z,12.86
2023-03-17T14:32:19.677Z,12.95
2023-03-17T14:34:59.323Z,12.06
2023-03-17T14:37:26.986Z,12.18
2023-03-17T14:39:55.671Z,11.88
2023-03-17T14:42:27.026Z,11.76
2023-03-17T14:45:01.761Z,11.86
2023-03-17T14:47:29.151Z,11.61
2023-03-17T14:49:56.906Z,11.80
2023-03-17T14:52:27.007Z,13.17
2023-03-17T14:54:55.058Z,12.92
2023-03-17T14:57:32.681Z,12.23
2023-03-17T15:00:33.990Z,12.09
2023-03-17T15:03:03.463Z,11.79
2023-03-17T15:05:40.681Z,11.75
2023-03-17T15:08:27.050Z,12.70
2023-03-17T15:10:54.228Z,12.93
2023-03-17T15:13:21.727Z,13.18
2023-03-17T15:15:49.183Z,13.63
2023-03-17T15:18:16.830Z,13.98
2023-03-17T15:20:44.970Z,13.73
2023-03-17T15:23:19.440Z,12.32
2023-03-17T15:25:50.437Z,11.77
2023-03-17T15:28:18.552Z,12.42
2023-03-17T15:30:48.187Z,12.97
2023-03-17T15:33:28.672Z,13.69
2023-03-17T15:36:02.147Z,13.99
2023-03-17T15:38:30.119Z,13.68
2023-03-17T15:40:57.392Z,12.90
2023-03-17T15:43:24.757Z,12.64
2023-03-17T15:45:57.508Z,12.04
2023-03-17T15:48:29.821Z,12.97
2023-03-17T15:50:58.783Z,13.44
2023-03-17T15:53:26.297Z,14.03
2023-03-17T15:55:53.528Z,13.69
2023-03-17T15:58:21.017Z,13.65
2023-03-17T16:00:50.257Z,13.70
2023-03-17T16:03:31.280Z,12.96
2023-03-17T16:05:58.820Z,13.31
2023-03-17T16:08:26.422Z,12.96
2023-03-17T16:10:53.692Z,13.36
2023-03-17T16:13:21.026Z,12.61
2023-03-17T16:15:55.898Z,13.05
2023-03-17T16:18:27.702Z,13.09
2023-03-17T16:20:55.276Z,13.52
2023-03-17T16:23:23.642Z,13.90
2023-03-17T16:25:51.698Z,13.26
2023-03-17T16:28:26.158Z,13.40
2023-03-17T16:30:54.506Z,13.34
2023-03-17T16:33:23.609Z,13.29
2023-03-17T16:35:52.429Z,12.89
2023-03-17T16:38:20.723Z,13.02
2023-03-17T16:40:49.155Z,12.67
2023-03-17T16:43:38.337Z,12.66
2023-03-17T16:46:06.622Z,12.77
2023-03-17T16:48:34.318Z,13.03
2023-03-17T16:51:01.751Z,12.64
2023-03-17T16:53:29.311Z,12.70
2023-03-17T16:55:56.519Z,11.92
2023-03-17T16:58:23.715Z,12.36
2023-03-17T17:00:52.397Z,12.29
2023-03-17T17:03:20.296Z,12.56
2023-03-17T17:05:51.409Z,11.90
2023-03-17T17:08:18.941Z,12.26
2023-03-17T17:10:46.272Z,11.75
2023-03-17T17:13:14.272Z,11.73
2023-03-17T17:15:42.658Z,11.58
2023-03-17T17:18:14.845Z,11.58
2023-03-17T17:20:45.064Z,11.24
2023-03-17T17:23:19.995Z,10.91
2023-03-17T17:25:48.208Z,10.76
2023-03-17T17:28:16.764Z,11.01
2023-03-17T17:30:48.596Z,10.85
2023-03-17T17:33:18.316Z,10.98
2023-03-17T17:35:45.899Z,10.89
2023-03-17T17:38:18.717Z,10.84
2023-03-17T17:40:48.148Z,10.45
2023-03-17T17:43:18.297Z,10.37
2023-03-17T17:45:48.615Z,10.32
2023-03-17T17:48:17.351Z,9.88
2023-03-17T17:50:45.465Z,9.24
2023-03-17T17:53:15.897Z,8.73
2023-03-17T17:55:45.758Z,8.72
2023-03-17T17:58:20.862Z,8.36
2023-03-17T18:00:51.019Z,8.15
2023-03-17T18:03:25.125Z,8.32
2023-03-17T18:05:54.725Z,7.97
2023-03-17T18:08:24.524Z,8.14
2023-03-17T18:10:52.925Z,8.11
2023-03-17T18:13:21.773Z,7.87
2023-03-17T18:15:50.752Z,7.63
2023-03-17T18:18:19.126Z,8.05
2023-03-17T18:20:48.108Z,8.21
2023-03-17T18:23:19.058Z,7.99
2023-03-17T18:25:47.713Z,7.41
2023-03-17T18:28:16.816Z,7.95
2023-03-17T18:30:47.119Z,8.12
2023-03-17T18:33:18.122Z,8.10
2023-03-17T18:35:49.775Z,8.11
2023-03-17T18:38:18.797Z,7.86
2023-03-17T18:40:48.064Z,7.57
2023-03-17T18:43:16.891Z,8.22
2023-03-17T18:45:45.879Z,8.12
2023-03-17T18:48:16.818Z,8.04
2023-03-17T18:50:47.027Z,8.12
2023-03-17T18:53:17.364Z,8.01
2023-03-17T18:55:46.289Z,8.06
2023-03-17T18:58:14.838Z,8.23
2023-03-17T19:00:44.919Z,8.25
2023-03-17T19:03:13.234Z,8.42
2023-03-17T19:05:41.944Z,8.32
2023-03-17T19:08:13.053Z,8.21
2023-03-17T19:10:44.528Z,8.21
2023-03-17T19:13:14.841Z,8.23
2023-03-17T19:15:43.435Z,8.30
2023-03-17T19:18:12.161Z,8.20
2023-03-17T19:20:41.030Z,8.10
2023-03-17T19:23:10.062Z,8.13
2023-03-17T19:25:39.528Z,8.06
2023-03-17T19:28:11.579Z,8.06
2023-03-17T19:30:41.169Z,7.96
2023-03-17T19:33:11.858Z,8.24
2023-03-17T19:35:41.701Z,7.94
2023-03-17T19:38:13.570Z,8.00
2023-03-17T19:40:42.606Z,7.95
2023-03-17T19:43:12.393Z,7.66
2023-03-17T19:45:41.178Z,7.74
2023-03-17T19:48:11.906Z,7.73
2023-03-17T19:50:42.174Z,7.27
2023-03-17T19:53:11.368Z,7.37
2023-03-17T19:55:40.290Z,7.33
2023-03-17T19:58:12.945Z,7.32
2023-03-17T20:00:44.770Z,7.27
2023-03-17T20:03:15.555Z,7.16
2023-03-17T20:05:46.003Z,7.24
2023-03-17T20:08:16.668Z,7.33
2023-03-17T20:10:45.860Z,7.33
2023-03-17T20:13:17.529Z,7.35
2023-03-17T20:15:46.580Z,7.07
2023-03-17T20:18:15.188Z,7.28
2023-03-17T20:20:47.970Z,7.06
2023-03-17T20:23:18.028Z,7.13
2023-03-17T20:25:47.411Z,7.18
2023-03-17T20:28:18.293Z,6.94
2023-03-17T20:30:48.625Z,6.66
2023-03-17T20:33:19.287Z,6.89
2023-03-17T20:35:47.604Z,6.55
2023-03-17T20:38:16.375Z,6.62
2023-03-17T20:40:44.857Z,6.28
2023-03-17T20:43:14.855Z,6.58
2023-03-17T20:45:43.914Z,6.71
2023-03-17T20:48:12.818Z,6.74
2023-03-17T20:50:43.977Z,6.70
2023-03-17T20:53:12.708Z,6.62
2023-03-17T20:55:43.157Z,6.64
2023-03-17T20:58:12.083Z,6.85
2023-03-17T21:00:40.905Z,6.65
2023-03-17T21:03:10.466Z,6.82
2023-03-17T21:05:40.996Z,6.93
2023-03-17T21:08:09.369Z,6.94
2023-03-17T21:10:38.158Z,7.14
2023-03-17T21:13:06.917Z,6.89
2023-03-17T21:15:36.315Z,6.58
2023-03-17T21:18:04.294Z,6.68
2023-03-17T21:20:32.793Z,6.62
2023-03-17T21:23:04.943Z,6.92
2023-03-17T21:25:33.602Z,6.79
2023-03-17T21:28:01.655Z,6.90
2023-03-17T21:30:30.910Z,6.93
2023-03-17T21:33:01.086Z,6.85
2023-03-17T21:35:30.898Z,6.85
2023-03-17T21:37:58.813Z,6.96
2023-03-17T21:40:26.605Z,6.87
2023-03-17T21:42:55.674Z,6.89
2023-03-17T21:45:23.301Z,6.88
2023-03-17T21:47:50.863Z,6.97
2023-03-17T21:50:20.170Z,6.82
2023-03-17T21:52:48.996Z,6.89
2023-03-17T21:55:16.694Z,7.07
2023-03-17T21:57:44.464Z,6.99
2023-03-17T22:00:12.784Z,6.72
2023-03-17T22:02:41.931Z,6.77
2023-03-17T22:05:10.542Z,6.87
2023-03-17T22:07:38.729Z,6.88
2023-03-17T22:10:07.421Z,6.98
2023-03-17T22:12:35.764Z,7.06
2023-03-17T22:15:04.398Z,7.20
2023-03-17T22:17:32.593Z,6.98
2023-03-17T22:20:00.047Z,6.94
2023-03-17T22:22:27.546Z,7.00
2023-03-17T22:24:56.388Z,7.10
2023-03-17T22:27:23.785Z,7.12
2023-03-17T22:29:51.280Z,7.16
2023-03-17T22:32:18.957Z,7.00
2023-03-17T22:34:46.432Z,6.85
2023-03-17T22:37:13.834Z,7.12
2023-03-17T22:39:41.515Z,7.37
2023-03-17T22:42:09.477Z,6.89
2023-03-17T22:44:37.044Z,6.93
2023-03-17T22:47:06.331Z,6.88
2023-03-17T22:49:33.804Z,6.89
2023-03-17T22:52:01.312Z,6.66
2023-03-17T22:54:28.989Z,6.77
2023-03-17T22:56:56.398Z,6.41
2023-03-17T22:59:24.065Z,6.48
2023-03-17T23:01:51.817Z,6.78
2023-03-17T23:04:19.269Z,6.53
2023-03-17T23:06:46.653Z,6.53
2023-03-17T23:09:14.810Z,6.45
2023-03-17T23:11:42.824Z,6.49
2023-03-17T23:14:11.306Z,6.39
2023-03-17T23:16:39.251Z,6.50
2023-03-17T23:19:06.682Z,6.43
2023-03-17T23:21:37.627Z,6.48
2023-03-17T23:24:07.713Z,6.37
2023-03-17T23:26:36.930Z,6.46
2023-03-17T23:29:06.992Z,6.15
2023-03-17T23:31:34.981Z,6.11
2023-03-17T23:34:03.424Z,6.09
2023-03-17T23:36:31.072Z,6.20
2023-03-17T23:38:58.502Z,6.00
2023-03-17T23:41:26.048Z,5.97
2023-03-17T23:43:53.746Z,6.14
2023-03-17T23:46:21.156Z,6.07
2023-03-17T23:48:49.389Z,6.16
2023-03-17T23:51:17.865Z,6.15
2023-03-17T23:53:46.440Z,6.27
2023-03-17T23:56:13.856Z,6.23
2023-03-17T23:58:43.313Z,6.22
